createdAt,value
2022-08-04T00:01:57.705Z,21.51
2022-08-04T00:04:51.618Z,21.44
2022-08-04T00:07:49.799Z,21.48
2022-08-04T00:10:35.187Z,21.56
2022-08-04T00:13:30.447Z,21.51
2022-08-04T00:16:19.210Z,21.45
2022-08-04T00:19:22.655Z,21.44
2022-08-04T00:22:16.764Z,21.41
2022-08-04T00:25:08.652Z,21.59
2022-08-04T00:27:49.771Z,21.52
2022-08-04T00:30:44.046Z,21.60
2022-08-04T00:33:31.770Z,21.59
2022-08-04T00:36:12.676Z,21.55
2022-08-04T00:39:02.094Z,21.35
2022-08-04T00:42:29.682Z,21.24
2022-08-04T00:46:15.036Z,21.39
2022-08-04T00:49:03.808Z,21.15
2022-08-04T00:52:31.735Z,21.19
2022-08-04T00:55:36.442Z,21.08
2022-08-04T00:58:29.791Z,21.06
2022-08-04T01:01:20.840Z,21.05
2022-08-04T01:04:12.946Z,21.01
2022-08-04T01:06:56.403Z,21.03
2022-08-04T01:10:08.822Z,20.96
2022-08-04T01:13:08.275Z,20.87
2022-08-04T01:16:12.064Z,20.84
2022-08-04T01:19:11.444Z,21.06
2022-08-04T01:22:04.825Z,21.03
2022-08-04T01:25:10.672Z,21.06
2022-08-04T01:28:04.934Z,20.99
2022-08-04T01:31:03.695Z,21.28
2022-08-04T01:34:03.656Z,21.28
2022-08-04T01:36:52.657Z,21.15
2022-08-04T01:39:55.793Z,21.05
2022-08-04T01:42:41.068Z,21.13
2022-08-04T01:45:31.797Z,21.19
2022-08-04T01:48:15.071Z,21.32
2022-08-04T01:51:11.680Z,21.26
2022-08-04T01:53:52.706Z,21.34
2022-08-04T01:56:41.825Z,21.29
2022-08-04T01:59:27.066Z,21.40
2022-08-04T02:02:13.980Z,21.37
2022-08-04T02:04:55.877Z,21.22
2022-08-04T02:07:44.807Z,21.15
2022-08-04T02:10:52.810Z,21.10
2022-08-04T02:14:00.245Z,21.20
2022-08-04T02:17:00.604Z,21.30
2022-08-04T02:20:07.828Z,21.36
2022-08-04T02:23:06.695Z,21.35
2022-08-04T02:26:04.111Z,21.37
2022-08-04T02:29:08.083Z,21.43
2022-08-04T02:32:09.830Z,21.41
2022-08-04T02:35:12.715Z,21.40
2022-08-04T02:38:25.496Z,21.51
2022-08-04T02:41:08.720Z,21.54
2022-08-04T02:43:56.823Z,21.58
2022-08-04T02:46:39.787Z,21.53
2022-08-04T02:49:29.366Z,21.30
2022-08-04T02:52:18.116Z,21.34
2022-08-04T02:55:08.838Z,21.22
2022-08-04T02:57:53.727Z,21.20
2022-08-04T03:00:43.157Z,21.32
2022-08-04T03:03:23.780Z,21.07
2022-08-04T03:06:25.836Z,21.06
2022-08-04T03:09:12.484Z,20.97
2022-08-04T03:12:23.854Z,20.78
2022-08-04T03:15:42.136Z,20.85
2022-08-04T03:19:03.886Z,20.94
2022-08-04T03:25:57.805Z,20.97
2022-08-04T03:29:12.769Z,21.03
2022-08-04T03:32:25.880Z,21.01
2022-08-04T03:35:45.872Z,21.10
2022-08-04T03:39:01.938Z,21.26
2022-08-04T03:42:03.997Z,21.33
2022-08-04T03:45:24.015Z,21.09
2022-08-04T03:48:30.149Z,21.15
2022-08-04T03:51:56.461Z,21.07
2022-08-04T03:54:46.763Z,21.08
2022-08-04T03:57:48.606Z,20.95
2022-08-04T04:01:07.862Z,20.80
2022-08-04T04:04:07.118Z,20.66
2022-08-04T04:07:24.473Z,20.44
2022-08-04T04:10:35.901Z,20.56
2022-08-04T04:13:42.927Z,20.62
2022-08-04T04:16:37.313Z,20.72
2022-08-04T04:19:34.151Z,20.75
2022-08-04T04:22:48.911Z,20.62
2022-08-04T04:25:44.495Z,20.64
2022-08-04T04:28:43.780Z,20.61
2022-08-04T04:32:27.788Z,20.60
2022-08-04T04:35:44.967Z,20.54
2022-08-04T04:39:09.290Z,20.48
2022-08-04T04:42:37.411Z,20.66
2022-08-04T04:45:37.190Z,20.63
2022-08-04T04:49:07.904Z,20.53
2022-08-04T04:51:54.636Z,20.54
2022-08-04T04:54:52.550Z,20.41
2022-08-04T04:57:54.597Z,20.33
2022-08-04T05:01:04.924Z,20.36
2022-08-04T05:04:14.703Z,20.70
2022-08-04T05:07:26.333Z,20.58
2022-08-04T05:10:53.828Z,20.43
2022-08-04T05:14:38.330Z,20.67
2022-08-04T05:17:29.183Z,20.62
2022-08-04T05:20:27.332Z,20.57
2022-08-04T05:23:16.587Z,20.60
2022-08-04T05:26:19.018Z,20.79
2022-08-04T05:29:03.910Z,20.56
2022-08-04T05:32:05.821Z,20.38
2022-08-04T05:35:00.623Z,20.50
2022-08-04T05:37:43.936Z,20.52
2022-08-04T05:40:33.888Z,20.76
2022-08-04T05:43:18.024Z,20.75
2022-08-04T05:46:07.007Z,20.96
2022-08-04T05:48:49.012Z,21.94
2022-08-04T05:51:41.336Z,23.36
2022-08-04T05:54:29.974Z,24.61
2022-08-04T05:57:17.907Z,25.59
2022-08-04T06:00:14.899Z,26.36
2022-08-04T06:03:17.214Z,27.27
2022-08-04T06:05:59.009Z,28.00
2022-08-04T06:08:46.839Z,28.67
2022-08-04T06:11:27.950Z,29.04
2022-08-04T06:14:19.863Z,29.24
2022-08-04T06:17:03.401Z,29.33
2022-08-04T06:20:02.137Z,29.38
2022-08-04T06:22:56.955Z,29.45
2022-08-04T06:25:51.868Z,29.73
2022-08-04T06:28:35.288Z,29.76
2022-08-04T06:32:27.363Z,29.16
2022-08-04T06:35:10.055Z,27.11
2022-08-04T06:38:00.399Z,26.21
2022-08-04T06:40:51.012Z,25.83
2022-08-04T06:43:42.914Z,25.76
2022-08-04T06:46:30.963Z,25.66
2022-08-04T06:49:12.272Z,25.57
2022-08-04T06:52:02.234Z,25.62
2022-08-04T06:54:43.301Z,25.68
2022-08-04T06:57:38.992Z,25.36
2022-08-04T07:00:22.014Z,25.16
2022-08-04T07:03:18.049Z,25.03
2022-08-04T07:06:06.252Z,25.34
2022-08-04T07:09:03.759Z,26.54
2022-08-04T07:11:47.899Z,26.81
2022-08-04T07:14:36.622Z,27.11
2022-08-04T07:17:21.132Z,27.88
2022-08-04T07:20:08.065Z,28.31
2022-08-04T07:22:53.139Z,27.49
2022-08-04T07:26:11.600Z,26.82
2022-08-04T07:28:43.892Z,26.03
2022-08-04T07:31:39.923Z,25.97
2022-08-04T07:34:28.278Z,25.45
2022-08-04T07:37:13.132Z,24.81
2022-08-04T07:40:01.331Z,24.03
2022-08-04T07:42:42.057Z,23.69
2022-08-04T07:45:31.666Z,23.65
2022-08-04T07:48:14.736Z,23.74
2022-08-04T07:51:04.931Z,23.82
2022-08-04T07:53:54.714Z,23.88
2022-08-04T07:56:47.146Z,23.90
2022-08-04T07:59:28.477Z,24.05
2022-08-04T08:02:17.282Z,24.18
2022-08-04T08:04:59.054Z,25.43
2022-08-04T08:07:50.799Z,26.30
2022-08-04T08:10:35.846Z,27.43
2022-08-04T08:13:31.463Z,27.02
2022-08-04T08:16:14.089Z,26.89
2022-08-04T08:19:03.002Z,27.07
2022-08-04T08:21:59.645Z,28.17
2022-08-04T08:24:50.134Z,28.72
2022-08-04T08:27:33.025Z,29.23
2022-08-04T08:30:20.151Z,29.90
2022-08-04T08:33:16.920Z,29.65
2022-08-04T08:36:32.332Z,29.04
2022-08-04T08:39:25.159Z,28.65
2022-08-04T08:42:42.995Z,28.73
2022-08-04T08:45:46.070Z,29.43
2022-08-04T08:49:02.451Z,30.31
2022-08-04T08:52:56.412Z,30.46
2022-08-04T08:55:56.923Z,30.29
2022-08-04T08:59:15.130Z,30.59
2022-08-04T09:02:23.926Z,31.19
2022-08-04T09:05:23.077Z,31.38
2022-08-04T09:08:32.224Z,31.30
2022-08-04T09:11:16.847Z,30.96
2022-08-04T09:14:16.952Z,30.99
2022-08-04T09:17:04.111Z,30.64
2022-08-04T09:19:59.446Z,29.19
2022-08-04T09:22:52.295Z,29.03
2022-08-04T09:25:59.006Z,28.73
2022-08-04T09:29:15.084Z,29.14
2022-08-04T09:32:23.365Z,29.43
2022-08-04T09:35:16.318Z,30.12
2022-08-04T09:38:17.823Z,30.58
2022-08-04T09:41:49.319Z,30.90
2022-08-04T09:45:26.064Z,30.53
2022-08-04T09:48:20.198Z,30.96
2022-08-04T09:51:07.109Z,31.46
2022-08-04T09:54:09.082Z,31.29
2022-08-04T09:57:48.383Z,30.11
2022-08-04T10:00:47.160Z,29.48
2022-08-04T10:03:38.461Z,29.55
2022-08-04T10:06:26.076Z,29.54
2022-08-04T10:09:18.249Z,28.92
2022-08-04T10:12:28.287Z,28.71
2022-08-04T10:15:27.082Z,29.38
2022-08-04T10:18:21.116Z,29.72
2022-08-04T10:21:11.595Z,29.63
2022-08-04T10:24:20.320Z,29.25
2022-08-04T10:27:14.058Z,29.36
2022-08-04T10:30:15.080Z,29.37
2022-08-04T10:33:19.380Z,29.38
2022-08-04T10:36:17.708Z,29.80
2022-08-04T10:39:43.749Z,30.17
2022-08-04T10:42:36.121Z,30.39
2022-08-04T10:45:33.129Z,29.84
2022-08-04T10:48:34.704Z,30.03
2022-08-04T10:51:58.227Z,29.99
2022-08-04T10:55:05.153Z,28.95
2022-08-04T10:58:14.419Z,28.73
2022-08-04T11:00:59.779Z,29.26
2022-08-04T11:04:05.048Z,29.97
2022-08-04T11:06:47.294Z,30.02
2022-08-04T11:09:37.034Z,29.84
2022-08-04T11:12:26.291Z,29.51
2022-08-04T11:15:29.026Z,29.43
2022-08-04T11:18:16.956Z,29.41
2022-08-04T11:21:22.326Z,28.94
2022-08-04T11:24:18.351Z,29.07
2022-08-04T11:27:21.589Z,29.24
2022-08-04T11:30:18.157Z,29.70
2022-08-04T11:33:20.525Z,29.70
2022-08-04T11:36:39.169Z,29.78
2022-08-04T11:39:34.105Z,30.16
2022-08-04T11:42:30.564Z,29.89
2022-08-04T11:45:22.028Z,29.88
2022-08-04T11:48:22.278Z,29.26
2022-08-04T11:51:09.816Z,29.09
2022-08-04T11:53:59.304Z,29.23
2022-08-04T11:56:40.078Z,29.38
2022-08-04T11:59:31.679Z,29.46
2022-08-04T12:02:37.984Z,28.51
2022-08-04T12:05:59.909Z,28.12
2022-08-04T12:09:07.120Z,27.99
2022-08-04T12:12:13.831Z,28.29
2022-08-04T12:15:23.195Z,28.16
2022-08-04T12:18:31.316Z,28.04
2022-08-04T12:21:22.087Z,27.72
2022-08-04T12:24:21.210Z,27.51
2022-08-04T12:27:13.340Z,27.53
2022-08-04T12:30:59.688Z,27.76
2022-08-04T12:33:19.452Z,28.15
2022-08-04T12:36:20.960Z,28.11
2022-08-04T12:39:17.161Z,28.05
2022-08-04T12:42:27.188Z,28.22
2022-08-04T12:45:17.112Z,28.74
2022-08-04T12:48:04.088Z,29.10
2022-08-04T12:54:05.255Z,29.50
2022-08-04T12:56:54.902Z,29.43
2022-08-04T12:59:36.241Z,29.77
2022-08-04T13:02:41.168Z,29.68
2022-08-04T13:05:23.225Z,29.44
2022-08-04T13:08:13.517Z,29.28
2022-08-04T13:10:59.246Z,29.26
2022-08-04T13:13:46.168Z,29.02
2022-08-04T13:16:36.244Z,28.59
2022-08-04T13:19:25.127Z,28.16
2022-08-04T13:22:06.958Z,28.19
2022-08-04T13:26:40.382Z,28.31
2022-08-04T13:28:09.211Z,28.51
2022-08-04T13:31:02.718Z,28.31
2022-08-04T13:33:53.276Z,28.33
2022-08-04T13:36:38.277Z,28.50
2022-08-04T13:39:28.622Z,28.49
2022-08-04T13:42:11.516Z,28.48
2022-08-04T13:45:03.442Z,28.58
2022-08-04T13:47:48.642Z,28.14
2022-08-04T13:50:38.321Z,27.92
2022-08-04T13:53:21.907Z,27.73
2022-08-04T13:56:14.639Z,27.55
2022-08-04T13:59:01.911Z,27.49
2022-08-04T14:01:53.293Z,27.54
2022-08-04T14:04:47.417Z,27.80
2022-08-04T14:07:39.374Z,27.86
2022-08-04T14:10:23.641Z,27.95
2022-08-04T14:13:13.899Z,27.77
2022-08-04T14:16:03.345Z,27.67
2022-08-04T14:18:52.271Z,27.65
2022-08-04T14:21:33.159Z,27.32
2022-08-04T14:24:35.249Z,27.17
2022-08-04T14:27:16.538Z,27.08
2022-08-04T14:30:04.656Z,26.54
2022-08-04T14:34:00.587Z,26.21
2022-08-04T14:36:23.395Z,26.17
2022-08-04T14:39:08.959Z,25.92
2022-08-04T14:41:58.078Z,26.02
2022-08-04T14:44:39.609Z,26.19
2022-08-04T14:47:52.566Z,26.49
2022-08-04T14:50:43.193Z,26.11
2022-08-04T14:53:34.056Z,25.93
2022-08-04T14:56:37.332Z,25.82
2022-08-04T14:59:28.415Z,25.99
2022-08-04T15:02:10.012Z,26.15
2022-08-04T15:04:59.362Z,26.23
2022-08-04T15:08:02.435Z,26.57
2022-08-04T15:10:58.572Z,26.84
2022-08-04T15:13:39.539Z,26.97
2022-08-04T15:16:29.249Z,26.83
2022-08-04T15:19:10.161Z,26.77
2022-08-04T15:22:00.279Z,26.90
2022-08-04T15:24:41.347Z,27.12
2022-08-04T15:27:31.716Z,27.00
2022-08-04T15:30:14.262Z,26.93
2022-08-04T15:33:22.169Z,26.70
2022-08-04T15:36:41.248Z,26.42
2022-08-04T15:40:00.380Z,25.98
2022-08-04T15:42:55.207Z,25.75
2022-08-04T15:46:41.050Z,25.90
2022-08-04T15:49:02.230Z,25.92
2022-08-04T15:51:44.926Z,25.95
2022-08-04T15:54:34.703Z,25.93
2022-08-04T15:57:15.301Z,26.12
2022-08-04T16:00:14.709Z,26.23
2022-08-04T16:02:57.669Z,26.25
2022-08-04T16:05:46.560Z,26.06
2022-08-04T16:08:27.359Z,26.01
2022-08-04T16:11:14.970Z,25.96
2022-08-04T16:14:11.380Z,25.94
2022-08-04T16:17:01.474Z,25.94
2022-08-04T16:20:01.349Z,25.87
2022-08-04T16:22:58.303Z,25.76
2022-08-04T16:25:49.457Z,25.68
2022-08-04T16:28:42.201Z,25.59
2022-08-04T16:31:28.393Z,25.60
2022-08-04T16:34:49.374Z,25.57
2022-08-04T16:37:38.313Z,25.56
2022-08-04T16:40:47.256Z,25.31
2022-08-04T16:43:38.396Z,25.14
2022-08-04T16:46:22.038Z,24.87
2022-08-04T16:49:15.635Z,24.77
2022-08-04T16:51:58.877Z,24.70
2022-08-04T16:54:46.321Z,24.42
2022-08-04T16:57:28.247Z,24.09
2022-08-04T17:00:18.760Z,24.00
2022-08-04T17:03:01.750Z,23.98
2022-08-04T17:05:48.357Z,24.15
2022-08-04T17:08:35.270Z,24.07
2022-08-04T17:11:23.119Z,23.98
2022-08-04T17:14:05.689Z,24.00
2022-08-04T17:16:54.363Z,23.86
2022-08-04T17:19:35.627Z,23.70
2022-08-04T17:22:22.504Z,23.63
2022-08-04T17:25:07.018Z,23.61
2022-08-04T17:28:09.157Z,23.56
2022-08-04T17:30:52.265Z,23.59
2022-08-04T17:33:54.904Z,23.56
2022-08-04T17:36:40.021Z,23.58
2022-08-04T17:39:38.109Z,23.31
2022-08-04T17:42:19.275Z,23.15
2022-08-04T17:48:27.300Z,23.13
2022-08-04T17:52:04.001Z,23.04
2022-08-04T17:54:43.453Z,22.90
2022-08-04T17:57:33.939Z,22.96
2022-08-04T18:00:19.258Z,22.92
2022-08-04T18:03:07.578Z,22.82
2022-08-04T18:06:02.134Z,22.76
2022-08-04T18:08:54.784Z,22.87
2022-08-04T18:11:41.778Z,22.86
2022-08-04T18:14:31.090Z,22.72
2022-08-04T18:17:17.819Z,22.65
2022-08-04T18:20:23.792Z,22.79
2022-08-04T18:23:07.687Z,22.86
2022-08-04T18:25:55.477Z,22.82
2022-08-04T18:28:36.286Z,22.89
2022-08-04T18:31:27.709Z,22.88
2022-08-04T18:34:20.464Z,22.74
2022-08-04T18:37:05.418Z,22.72
2022-08-04T18:40:30.224Z,22.61
2022-08-04T18:43:16.471Z,22.68
2022-08-04T18:46:17.304Z,22.56
2022-08-04T18:49:00.505Z,22.46
2022-08-04T18:51:49.103Z,22.43
2022-08-04T18:54:33.702Z,22.43
2022-08-04T18:58:01.272Z,22.36
2022-08-04T19:00:30.426Z,22.25
2022-08-04T19:03:23.127Z,22.19
2022-08-04T19:06:04.490Z,22.23
2022-08-04T19:08:55.322Z,22.20
2022-08-04T19:11:54.142Z,22.19
2022-08-04T19:14:45.738Z,22.17
2022-08-04T19:17:53.926Z,22.01
2022-08-04T19:20:39.508Z,21.93
2022-08-04T19:24:28.244Z,21.91
2022-08-04T19:26:28.346Z,21.84
2022-08-04T19:29:10.220Z,21.78
2022-08-04T19:31:58.484Z,21.88
2022-08-04T19:34:52.338Z,21.88
2022-08-04T19:37:57.156Z,21.81
2022-08-04T19:40:43.341Z,21.67
2022-08-04T19:43:43.791Z,21.60
2022-08-04T19:46:28.494Z,21.61
2022-08-04T19:49:29.267Z,21.48
2022-08-04T19:52:33.395Z,21.40
2022-08-04T19:55:22.884Z,21.33
2022-08-04T19:58:26.331Z,21.15
2022-08-04T20:01:32.560Z,21.20
2022-08-04T20:04:17.975Z,21.16
2022-08-04T20:07:13.904Z,20.89
2022-08-04T20:09:57.514Z,20.91
2022-08-04T20:12:45.337Z,20.83
2022-08-04T20:15:36.848Z,20.82
2022-08-04T20:18:36.339Z,20.74
2022-08-04T20:21:36.690Z,20.74
2022-08-04T20:24:39.237Z,20.79
2022-08-04T20:27:25.851Z,20.79
2022-08-04T20:30:34.364Z,20.78
2022-08-04T20:33:29.353Z,20.69
2022-08-04T20:36:18.380Z,20.68
2022-08-04T20:38:59.648Z,20.63
2022-08-04T20:41:49.127Z,20.61
2022-08-04T20:44:31.455Z,20.63
2022-08-04T20:47:18.408Z,20.71
2022-08-04T20:49:59.514Z,20.65
2022-08-04T20:52:50.372Z,20.57
2022-08-04T20:55:32.493Z,20.46
2022-08-04T20:58:35.793Z,20.45
2022-08-04T21:01:16.636Z,20.38
2022-08-04T21:04:29.656Z,20.43
2022-08-04T21:07:16.746Z,20.27
2022-08-04T21:10:07.807Z,20.15
2022-08-04T21:12:50.141Z,20.09
2022-08-04T21:15:58.022Z,20.15
2022-08-04T21:18:39.586Z,20.15
2022-08-04T21:21:35.634Z,20.11
2022-08-04T21:24:17.561Z,20.00
2022-08-04T21:27:09.611Z,20.11
2022-08-04T21:29:50.503Z,19.93
2022-08-04T21:32:38.897Z,19.93
2022-08-04T21:38:28.831Z,19.77
2022-08-04T21:44:18.384Z,20.05
2022-08-04T21:47:14.024Z,19.85
2022-08-04T21:50:04.387Z,19.70
2022-08-04T21:52:55.524Z,19.67
2022-08-04T21:56:05.998Z,19.69
2022-08-04T21:58:46.764Z,19.66
2022-08-04T22:01:52.378Z,19.57
2022-08-04T22:04:36.529Z,19.58
2022-08-04T22:07:18.490Z,19.67
2022-08-04T22:10:12.855Z,19.69
2022-08-04T22:12:59.508Z,19.59
2022-08-04T22:18:58.439Z,19.31
2022-08-04T22:21:48.054Z,19.33
2022-08-04T22:24:31.933Z,19.37
2022-08-04T22:27:41.059Z,19.41
2022-08-04T22:30:33.209Z,19.41
2022-08-04T22:33:55.323Z,19.31
2022-08-04T22:36:27.461Z,19.38
2022-08-04T22:39:15.614Z,19.28
2022-08-04T22:42:03.139Z,19.21
2022-08-04T22:44:51.689Z,19.10
2022-08-04T22:47:32.423Z,19.17
2022-08-04T22:50:27.713Z,19.15
2022-08-04T22:53:10.560Z,19.14
2022-08-04T22:56:10.775Z,19.05
2022-08-04T22:58:52.459Z,19.15
2022-08-04T23:01:59.755Z,18.91
2022-08-04T23:04:41.476Z,18.93
2022-08-04T23:07:47.572Z,19.02
2022-08-04T23:10:29.823Z,18.89
2022-08-04T23:13:22.563Z,18.93
2022-08-04T23:16:04.467Z,18.92
2022-08-04T23:18:57.027Z,18.91
2022-08-04T23:21:40.906Z,18.79
2022-08-04T23:24:29.860Z,19.02
2022-08-04T23:27:22.930Z,18.83
2022-08-04T23:30:14.114Z,18.82
2022-08-04T23:32:54.849Z,18.57
2022-08-04T23:35:42.598Z,18.54
2022-08-04T23:38:31.083Z,18.55
2022-08-04T23:41:23.383Z,18.48
2022-08-04T23:44:04.888Z,18.49
2022-08-04T23:46:57.771Z,18.57
2022-08-04T23:49:45.072Z,18.59
2022-08-04T23:52:34.710Z,18.39
2022-08-04T23:55:18.947Z,18.39
2022-08-04T23:58:18.783Z,18.39
